Time;durP1;ratioP1;P1;durP2;ratioP2;P2;SDS_P1;SDS_P2;PMS_P1;PMS_P2;Temp;Humidity;BMP_temperature;BMP_pressure;BME280_temperature;BME280_humidity;BME280_pressure;Samples;Min_cycle;Max_cycle;Signal;HPM_P1;HPM_P2
2021/05/29 00:00:10;;;;;;;12.80;9.63;;;8.80;99.90;;;;;;2065687;28;20038;-71
2021/05/29 00:01:11;;;;;;;13.52;10.65;;;8.80;99.90;;;;;;2057043;28;20066;-70
2021/05/29 00:02:13;;;;;;;13.00;10.23;;;8.80;99.90;;;;;;2048925;28;20090;-70
2021/05/29 00:03:14;;;;;;;10.93;9.43;;;8.80;99.90;;;;;;2057067;28;20038;-70
2021/05/29 00:04:15;;;;;;;11.15;9.65;;;8.80;99.90;;;;;;2064426;28;20112;-70
2021/05/29 00:05:15;;;;;;;12.52;10.07;;;8.70;99.90;;;;;;2062618;28;20453;-71
2021/05/29 00:06:16;;;;;;;12.23;9.80;;;8.70;99.90;;;;;;2065420;28;20473;-70
2021/05/29 00:07:17;;;;;;;13.75;10.25;;;8.70;99.90;;;;;;2058886;28;20046;-71
2021/05/29 00:08:18;;;;;;;11.55;9.98;;;8.70;99.90;;;;;;2056787;28;20038;-70
2021/05/29 00:09:20;;;;;;;12.70;9.90;;;8.70;99.90;;;;;;2065400;28;20041;-70
2021/05/29 00:10:21;;;;;;;11.02;9.32;;;8.70;99.90;;;;;;2065481;28;20489;-70
2021/05/29 00:11:21;;;;;;;11.60;10.02;;;8.70;99.90;;;;;;2056723;28;20736;-71
2021/05/29 00:12:22;;;;;;;12.65;9.70;;;8.70;99.90;;;;;;2048838;29;20421;-70
2021/05/29 00:13:25;;;;;;;11.73;9.82;;;8.70;99.90;;;;;;2056767;28;20051;-70
2021/05/29 00:14:26;;;;;;;11.77;10.13;;;8.70;99.90;;;;;;2064578;28;20026;-71
2021/05/29 00:15:28;;;;;;;13.32;10.18;;;8.60;99.90;;;;;;2056623;28;20019;-70
2021/05/29 00:16:29;;;;;;;12.82;10.23;;;8.60;99.90;;;;;;2056605;28;20035;-71
2021/05/29 00:17:29;;;;;;;11.35;10.15;;;8.60;99.90;;;;;;2056687;28;20089;-70
2021/05/29 00:18:30;;;;;;;12.63;10.13;;;8.60;99.90;;;;;;2065428;28;20033;-70
2021/05/29 00:19:31;;;;;;;12.43;10.27;;;8.50;99.90;;;;;;2065356;28;20026;-71
2021/05/29 00:20:32;;;;;;;12.57;10.50;;;8.60;99.90;;;;;;2065392;28;20060;-70
2021/05/29 00:21:33;;;;;;;12.38;10.95;;;8.50;99.90;;;;;;2065444;28;20022;-70
2021/05/29 00:22:33;;;;;;;13.15;10.93;;;8.50;99.90;;;;;;2056624;28;20058;-71
2021/05/29 00:23:35;;;;;;;11.63;10.15;;;8.50;99.90;;;;;;2056421;28;20031;-71
2021/05/29 00:24:35;;;;;;;11.35;9.90;;;8.50;99.90;;;;;;2063893;28;20030;-71
2021/05/29 00:25:37;;;;;;;11.30;9.73;;;8.50;99.90;;;;;;2065282;28;20026;-71
2021/05/29 00:26:38;;;;;;;12.13;9.80;;;8.50;99.90;;;;;;2056795;28;20548;-70
2021/05/29 00:27:38;;;;;;;11.32;9.60;;;8.40;99.90;;;;;;2056843;28;20027;-71
2021/05/29 00:28:39;;;;;;;11.85;9.48;;;8.40;99.90;;;;;;2065850;28;20053;-71
2021/05/29 00:29:40;;;;;;;12.52;10.40;;;8.40;99.90;;;;;;2057020;28;20482;-71
2021/05/29 00:30:42;;;;;;;12.18;10.38;;;8.40;99.90;;;;;;2057415;28;20038;-71
2021/05/29 00:31:43;;;;;;;12.43;10.85;;;8.40;99.90;;;;;;2066306;28;20026;-71
2021/05/29 00:32:43;;;;;;;12.80;11.02;;;8.40;99.90;;;;;;2065921;28;20026;-71
2021/05/29 00:33:44;;;;;;;16.88;11.70;;;8.40;99.90;;;;;;2065627;28;20077;-71
2021/05/29 00:34:45;;;;;;;13.00;11.15;;;8.40;99.90;;;;;;2062321;28;20074;-71
2021/05/29 00:35:45;;;;;;;13.73;11.15;;;8.30;99.90;;;;;;2065711;28;20037;-71
2021/05/29 00:36:46;;;;;;;11.88;10.13;;;8.30;99.90;;;;;;2064386;28;20058;-71
2021/05/29 00:37:46;;;;;;;13.95;10.60;;;8.30;99.90;;;;;;2065394;28;20020;-71
2021/05/29 00:38:50;;;;;;;14.60;10.63;;;8.30;99.90;;;;;;2065185;28;20034;-71
2021/05/29 00:39:50;;;;;;;12.45;10.27;;;8.30;99.90;;;;;;2065271;28;20802;-71
2021/05/29 00:40:51;;;;;;;12.32;10.27;;;8.30;99.90;;;;;;2065290;28;20027;-71
2021/05/29 00:41:52;;;;;;;12.25;10.43;;;8.30;99.90;;;;;;2065163;28;20142;-71
2021/05/29 00:42:52;;;;;;;12.48;10.30;;;8.30;99.90;;;;;;2065215;28;20036;-71
2021/05/29 00:43:53;;;;;;;13.88;11.10;;;8.30;99.90;;;;;;2065051;28;20037;-71
2021/05/29 00:44:57;;;;;;;13.13;10.95;;;8.20;99.90;;;;;;2064403;28;20035;-71
2021/05/29 00:45:58;;;;;;;13.60;11.32;;;8.30;99.90;;;;;;2065095;28;20490;-71
2021/05/29 00:46:58;;;;;;;13.02;11.38;;;8.20;99.90;;;;;;2065212;28;20039;-71
2021/05/29 00:48:00;;;;;;;13.30;11.18;;;8.20;99.90;;;;;;2065092;28;20057;-71
2021/05/29 00:49:01;;;;;;;13.48;11.45;;;8.20;99.90;;;;;;2065209;28;20023;-71
2021/05/29 00:50:06;;;;;;;12.95;11.05;;;8.20;99.90;;;;;;2065115;28;20038;-71
2021/05/29 00:51:08;;;;;;;13.88;12.18;;;8.20;99.90;;;;;;2056496;28;20077;-71
2021/05/29 00:52:09;;;;;;;14.95;12.38;;;8.20;99.90;;;;;;2056655;28;20066;-71
2021/05/29 00:53:10;;;;;;;14.45;11.98;;;8.20;99.90;;;;;;2064248;28;20034;-71
2021/05/29 00:54:11;;;;;;;14.43;12.15;;;8.20;99.90;;;;;;2064228;28;20038;-71
2021/05/29 00:55:15;;;;;;;13.80;12.23;;;8.20;99.90;;;;;;2065096;28;20044;-71
2021/05/29 00:56:15;;;;;;;14.85;11.70;;;8.10;99.90;;;;;;2056466;28;20069;-73
2021/05/29 00:57:16;;;;;;;15.50;11.65;;;8.10;99.90;;;;;;2056284;28;20027;-70
2021/05/29 00:58:17;;;;;;;13.82;11.70;;;8.10;99.90;;;;;;2064406;28;20026;-71
2021/05/29 00:59:19;;;;;;;13.50;11.38;;;8.10;99.90;;;;;;2065051;28;20066;-71
2021/05/29 01:00:21;;;;;;;13.68;11.57;;;8.10;99.90;;;;;;2065055;28;20049;-71
2021/05/29 01:01:22;;;;;;;13.30;11.25;;;8.10;99.90;;;;;;2065044;28;20026;-71
2021/05/29 01:02:23;;;;;;;12.80;11.40;;;8.10;99.90;;;;;;2065146;28;20070;-71
2021/05/29 01:03:24;;;;;;;12.70;10.95;;;8.10;99.90;;;;;;2064940;28;20056;-70
2021/05/29 01:04:25;;;;;;;14.18;11.30;;;8.10;99.90;;;;;;2063472;28;20173;-70
2021/05/29 01:05:25;;;;;;;13.80;11.55;;;8.10;99.90;;;;;;2064359;28;20022;-70
2021/05/29 01:06:26;;;;;;;14.18;11.48;;;8.10;99.90;;;;;;2062966;28;20029;-70
2021/05/29 01:07:27;;;;;;;14.40;11.50;;;8.10;99.90;;;;;;2057342;28;20502;-70
2021/05/29 01:08:27;;;;;;;12.77;11.05;;;8.10;99.90;;;;;;2065107;28;20096;-71
2021/05/29 01:09:28;;;;;;;14.45;11.65;;;8.10;99.90;;;;;;2056381;28;20034;-70
2021/05/29 01:10:29;;;;;;;13.45;11.50;;;8.10;99.90;;;;;;2056445;28;20023;-71
2021/05/29 01:11:30;;;;;;;14.52;11.65;;;8.10;99.90;;;;;;2056527;28;20069;-71
2021/05/29 01:12:31;;;;;;;13.93;11.65;;;8.10;99.90;;;;;;2056479;28;20057;-71
2021/05/29 01:13:33;;;;;;;13.68;11.70;;;8.00;99.90;;;;;;2064985;28;20390;-71
2021/05/29 01:14:39;;;;;;;12.45;11.13;;;8.10;99.90;;;;;;2064315;28;20023;-72
2021/05/29 01:16:44;;;;;;;13.60;11.82;;;8.00;99.90;;;;;;2065130;28;20728;-71
2021/05/29 01:17:45;;;;;;;13.73;11.68;;;8.00;99.90;;;;;;2056195;28;20035;-71
2021/05/29 01:18:46;;;;;;;14.77;12.20;;;8.00;99.90;;;;;;2056342;28;20466;-71
2021/05/29 01:19:47;;;;;;;15.27;12.38;;;8.00;99.90;;;;;;2056384;28;20582;-71
2021/05/29 01:20:48;;;;;;;16.05;12.50;;;8.00;99.90;;;;;;2056401;28;20027;-71
2021/05/29 01:21:49;;;;;;;15.65;12.40;;;8.00;99.90;;;;;;2065100;28;20026;-71
2021/05/29 01:22:55;;;;;;;14.70;11.80;;;8.00;99.90;;;;;;2056324;28;20037;-71
2021/05/29 01:23:56;;;;;;;14.45;11.82;;;7.90;99.90;;;;;;2057060;28;20069;-71
2021/05/29 01:24:56;;;;;;;16.33;12.25;;;7.90;99.90;;;;;;2064104;28;20030;-71
2021/05/29 01:25:57;;;;;;;13.93;11.70;;;7.90;99.90;;;;;;2064970;28;20027;-71
2021/05/29 01:26:58;;;;;;;15.05;11.90;;;7.90;99.90;;;;;;2065085;28;20065;-71
2021/05/29 01:28:04;;;;;;;13.82;11.70;;;7.90;99.90;;;;;;2065014;28;20101;-71
2021/05/29 01:29:05;;;;;;;13.63;11.88;;;7.90;99.90;;;;;;2064684;28;20648;-71
2021/05/29 01:30:06;;;;;;;14.32;12.07;;;7.90;99.90;;;;;;2064719;28;20101;-71
2021/05/29 01:31:08;;;;;;;15.45;12.32;;;7.90;99.90;;;;;;2064442;28;20808;-71
2021/05/29 01:32:09;;;;;;;14.57;11.52;;;7.90;99.90;;;;;;2064722;28;20049;-70
2021/05/29 01:33:11;;;;;;;15.63;12.65;;;7.90;99.90;;;;;;2064938;28;20370;-70
2021/05/29 01:34:15;;;;;;;16.52;12.38;;;7.90;99.90;;;;;;2063655;28;20030;-71
2021/05/29 01:35:15;;;;;;;15.45;12.10;;;7.80;99.90;;;;;;2062118;28;20023;-71
2021/05/29 01:36:16;;;;;;;15.57;12.40;;;7.80;99.90;;;;;;2064918;28;20022;-70
2021/05/29 01:37:17;;;;;;;14.85;11.73;;;7.80;99.90;;;;;;2058588;28;20391;-71
2021/05/29 01:38:22;;;;;;;15.90;12.45;;;7.80;99.90;;;;;;2056207;28;20066;-72
2021/05/29 01:39:22;;;;;;;16.00;12.32;;;7.70;99.90;;;;;;2064954;28;20081;-70
2021/05/29 01:40:23;;;;;;;14.88;12.10;;;7.80;99.90;;;;;;2064740;28;20504;-70
2021/05/29 01:41:24;;;;;;;14.50;12.10;;;7.70;99.90;;;;;;2064890;28;20057;-72
2021/05/29 01:42:26;;;;;;;14.73;12.45;;;7.80;99.90;;;;;;2064730;28;20030;-70
2021/05/29 01:43:27;;;;;;;14.48;12.20;;;7.70;99.90;;;;;;2064941;28;20034;-71
2021/05/29 01:44:28;;;;;;;15.18;12.00;;;7.80;99.90;;;;;;2063912;28;20385;-71
2021/05/29 01:45:29;;;;;;;14.02;11.65;;;7.70;99.90;;;;;;2064749;28;20061;-71
2021/05/29 01:46:30;;;;;;;13.93;11.65;;;7.80;99.90;;;;;;2064778;28;20125;-70
2021/05/29 01:47:32;;;;;;;13.98;11.38;;;7.80;99.90;;;;;;2064492;28;20022;-71
2021/05/29 01:48:37;;;;;;;14.65;11.63;;;7.70;99.90;;;;;;2064493;28;20054;-72
2021/05/29 01:49:37;;;;;;;15.15;11.50;;;7.70;99.90;;;;;;2064618;28;20069;-70
2021/05/29 01:50:46;;;;;;;13.65;11.57;;;7.70;99.90;;;;;;2064570;28;20034;-70
2021/05/29 01:51:47;;;;;;;14.48;11.10;;;7.70;99.90;;;;;;2064633;28;20026;-71
2021/05/29 01:52:47;;;;;;;16.15;12.60;;;7.70;99.90;;;;;;2064656;28;20042;-71
2021/05/29 01:53:49;;;;;;;15.50;11.93;;;7.70;99.90;;;;;;2064480;28;20030;-70
2021/05/29 01:54:50;;;;;;;15.35;11.57;;;7.70;99.90;;;;;;2055217;28;20027;-70
2021/05/29 01:55:50;;;;;;;13.68;11.52;;;7.70;99.90;;;;;;2055902;28;20034;-71
2021/05/29 01:56:53;;;;;;;14.05;11.80;;;7.70;99.90;;;;;;2064604;28;20026;-71
2021/05/29 01:57:55;;;;;;;13.65;11.10;;;7.70;99.90;;;;;;2064607;28;20027;-73
2021/05/29 01:58:56;;;;;;;16.05;11.60;;;7.70;99.90;;;;;;2064480;28;20030;-71
2021/05/29 01:59:56;;;;;;;14.15;11.57;;;7.70;99.90;;;;;;2064609;28;20026;-71
2021/05/29 02:00:57;;;;;;;14.05;10.90;;;7.70;99.90;;;;;;2064564;28;20065;-71
2021/05/29 02:01:58;;;;;;;13.60;10.77;;;7.70;99.90;;;;;;2064540;28;20117;-71
2021/05/29 02:02:58;;;;;;;13.35;10.73;;;7.70;99.90;;;;;;2064561;28;20077;-71
2021/05/29 02:03:59;;;;;;;13.60;10.80;;;7.70;99.90;;;;;;2055828;28;20107;-71
2021/05/29 02:05:12;;;;;;;13.25;11.00;;;7.60;99.90;;;;;;2052272;28;20058;-71
2021/05/29 02:06:14;;;;;;;13.45;10.80;;;7.70;99.90;;;;;;2064413;28;20090;-71
2021/05/29 02:07:15;;;;;;;11.93;10.32;;;7.70;99.90;;;;;;2064469;28;20030;-71
2021/05/29 02:08:16;;;;;;;12.88;11.10;;;7.70;99.90;;;;;;2064499;28;20038;-71
2021/05/29 02:09:16;;;;;;;12.88;10.98;;;7.60;99.90;;;;;;2064569;28;20034;-72
2021/05/29 02:10:23;;;;;;;12.98;11.00;;;7.60;99.90;;;;;;2064553;28;20474;-71
2021/05/29 02:11:23;;;;;;;12.75;10.68;;;7.60;99.90;;;;;;2064480;28;20049;-71
2021/05/29 02:12:24;;;;;;;14.82;11.55;;;7.60;99.90;;;;;;2064415;28;20046;-71
2021/05/29 02:13:38;;;;;;;12.85;11.02;;;7.60;99.90;;;;;;2056117;28;20522;-71
2021/05/29 02:14:39;;;;;;;13.82;11.23;;;7.60;99.90;;;;;;2056956;28;20501;-71
2021/05/29 02:15:41;;;;;;;14.70;12.05;;;7.60;99.90;;;;;;2064524;28;20019;-71
2021/05/29 02:16:43;;;;;;;14.52;12.23;;;7.50;99.90;;;;;;2064471;28;20050;-71
2021/05/29 02:17:45;;;;;;;14.52;11.60;;;7.50;99.90;;;;;;2064477;28;20050;-71
2021/05/29 02:18:46;;;;;;;13.98;11.45;;;7.50;99.90;;;;;;2064577;28;20023;-71
2021/05/29 02:19:46;;;;;;;13.60;11.73;;;7.50;99.90;;;;;;2064440;28;20102;-71
2021/05/29 02:20:53;;;;;;;14.15;12.02;;;7.50;99.90;;;;;;2064406;28;20034;-71
2021/05/29 02:21:54;;;;;;;13.50;11.13;;;7.50;99.90;;;;;;2064271;28;20026;-70
2021/05/29 02:22:54;;;;;;;14.50;11.88;;;7.50;99.90;;;;;;2064444;28;20502;-70
2021/05/29 02:23:55;;;;;;;15.68;12.18;;;7.50;99.90;;;;;;2064309;28;20117;-70
2021/05/29 02:24:56;;;;;;;15.15;12.25;;;7.50;99.90;;;;;;2063390;28;20034;-71
2021/05/29 02:26:01;;;;;;;15.13;12.35;;;7.50;99.90;;;;;;2055820;28;20035;-71
2021/05/29 02:27:02;;;;;;;15.35;13.10;;;7.40;99.90;;;;;;2040448;29;20380;-71
2021/05/29 02:28:03;;;;;;;17.13;13.60;;;7.40;99.90;;;;;;2047832;29;20079;-72
2021/05/29 02:29:04;;;;;;;15.65;12.73;;;7.40;99.90;;;;;;2055928;28;20031;-70
2021/05/29 02:30:06;;;;;;;15.77;13.05;;;7.40;99.90;;;;;;2064256;28;20030;-70
2021/05/29 02:31:08;;;;;;;16.08;13.00;;;7.40;99.90;;;;;;2064288;28;20113;-70
2021/05/29 02:32:09;;;;;;;16.90;13.00;;;7.40;99.90;;;;;;2064262;28;20022;-70
2021/05/29 02:33:10;;;;;;;17.33;13.43;;;7.40;99.90;;;;;;2064585;28;20118;-70
2021/05/29 02:34:11;;;;;;;16.95;13.52;;;7.40;99.90;;;;;;2063530;28;20138;-71
2021/05/29 02:35:12;;;;;;;19.45;14.25;;;7.40;99.90;;;;;;2061489;28;20119;-70
2021/05/29 02:36:12;;;;;;;16.40;13.75;;;7.40;99.90;;;;;;2064154;28;20037;-71
2021/05/29 02:37:13;;;;;;;17.13;14.20;;;7.40;99.90;;;;;;2064207;28;20027;-70
2021/05/29 02:38:14;;;;;;;18.13;14.18;;;7.40;99.90;;;;;;2064071;28;20421;-70
2021/05/29 02:39:15;;;;;;;22.95;15.60;;;7.40;99.90;;;;;;2064362;28;20137;-72
2021/05/29 02:40:15;;;;;;;18.67;15.40;;;7.40;99.90;;;;;;2064410;28;20027;-72
2021/05/29 02:41:16;;;;;;;16.80;14.00;;;7.40;99.90;;;;;;2064604;28;20069;-73
2021/05/29 02:42:17;;;;;;;16.67;13.80;;;7.30;99.90;;;;;;2064408;28;20038;-72
2021/05/29 02:43:18;;;;;;;15.95;12.95;;;7.30;99.90;;;;;;2064543;28;20130;-71
2021/05/29 02:44:19;;;;;;;16.75;13.48;;;7.30;99.90;;;;;;2055136;28;20026;-71
2021/05/29 02:45:19;;;;;;;16.95;14.07;;;7.30;99.90;;;;;;2055983;28;20037;-71
2021/05/29 02:46:20;;;;;;;15.88;13.70;;;7.30;99.90;;;;;;2055940;28;20042;-71
2021/05/29 02:47:21;;;;;;;16.10;13.60;;;7.30;99.90;;;;;;2056194;28;20038;-71
2021/05/29 02:48:22;;;;;;;15.85;13.45;;;7.30;99.90;;;;;;2055976;28;20037;-71
2021/05/29 02:49:22;;;;;;;14.82;12.90;;;7.30;99.90;;;;;;2056069;28;20061;-71
2021/05/29 02:50:24;;;;;;;15.50;13.30;;;7.30;99.90;;;;;;2055913;28;20074;-72
2021/05/29 02:51:24;;;;;;;15.77;13.27;;;7.30;99.90;;;;;;2048054;28;20037;-71
2021/05/29 02:52:26;;;;;;;14.98;12.95;;;7.30;99.90;;;;;;2055964;28;20029;-72
2021/05/29 02:53:26;;;;;;;15.40;13.07;;;7.30;99.90;;;;;;2064753;28;20428;-71
2021/05/29 02:54:27;;;;;;;15.43;12.77;;;7.30;99.90;;;;;;2054972;28;20022;-72
2021/05/29 02:55:28;;;;;;;16.15;13.00;;;7.30;99.90;;;;;;2055742;28;20077;-71
2021/05/29 02:56:28;;;;;;;14.73;12.77;;;7.30;99.90;;;;;;2064289;28;20134;-71
2021/05/29 02:57:29;;;;;;;15.18;13.25;;;7.20;99.90;;;;;;2055569;28;20026;-71
2021/05/29 02:58:30;;;;;;;14.77;12.63;;;7.20;99.90;;;;;;2055667;28;20118;-72
2021/05/29 02:59:30;;;;;;;14.88;12.02;;;7.20;99.90;;;;;;2063679;28;20022;-71
2021/05/29 03:00:38;;;;;;;15.55;13.00;;;7.20;99.90;;;;;;2064166;28;20027;-71
2021/05/29 03:01:39;;;;;;;13.77;12.27;;;7.20;99.90;;;;;;2047495;29;20022;-71
2021/05/29 03:02:39;;;;;;;14.77;12.57;;;7.20;99.90;;;;;;2047605;29;20047;-71
2021/05/29 03:03:40;;;;;;;14.18;12.68;;;7.10;99.90;;;;;;2064179;28;20429;-71
2021/05/29 03:04:40;;;;;;;15.02;12.35;;;7.10;99.90;;;;;;2060490;28;20030;-71
2021/05/29 03:05:44;;;;;;;13.25;11.82;;;7.10;99.90;;;;;;2056461;28;20026;-71
2021/05/29 03:06:44;;;;;;;14.20;12.18;;;7.10;99.90;;;;;;2062185;28;20106;-71
2021/05/29 03:07:46;;;;;;;13.80;11.85;;;7.10;99.90;;;;;;2055673;28;20118;-72
2021/05/29 03:08:47;;;;;;;13.52;11.55;;;7.10;99.90;;;;;;2064390;28;20106;-71
2021/05/29 03:09:47;;;;;;;14.13;12.00;;;7.10;99.90;;;;;;2055822;28;20046;-71
2021/05/29 03:10:50;;;;;;;15.25;12.70;;;7.00;99.90;;;;;;2055700;28;20089;-71
2021/05/29 03:11:51;;;;;;;14.63;12.32;;;7.00;99.90;;;;;;2064509;28;20032;-71
2021/05/29 03:12:52;;;;;;;14.15;12.52;;;7.00;99.90;;;;;;2055754;28;20033;-72
2021/05/29 03:13:53;;;;;;;13.70;11.80;;;7.00;99.90;;;;;;2055859;28;20047;-71
2021/05/29 03:14:54;;;;;;;14.88;12.38;;;7.00;99.90;;;;;;2063532;28;20077;-71
2021/05/29 03:15:54;;;;;;;14.85;11.88;;;7.00;99.90;;;;;;2064331;28;20030;-71
2021/05/29 03:16:55;;;;;;;14.23;11.90;;;7.00;99.90;;;;;;2064433;28;20169;-71
2021/05/29 03:17:56;;;;;;;16.17;12.20;;;7.00;99.90;;;;;;2055798;28;20027;-71
2021/05/29 03:18:56;;;;;;;14.07;11.70;;;6.90;99.90;;;;;;2055918;28;20035;-71
2021/05/29 03:19:57;;;;;;;14.63;12.07;;;6.90;99.90;;;;;;2056177;28;20066;-71
2021/05/29 03:20:58;;;;;;;14.55;12.13;;;6.90;99.90;;;;;;2056200;28;20031;-71
2021/05/29 03:21:59;;;;;;;13.75;11.82;;;6.90;99.90;;;;;;2056615;28;20110;-71
2021/05/29 03:23:00;;;;;;;14.18;11.30;;;6.90;99.90;;;;;;2064819;28;20034;-71
2021/05/29 03:24:01;;;;;;;13.10;11.55;;;6.90;99.90;;;;;;2055391;28;20035;-71
2021/05/29 03:25:02;;;;;;;14.48;11.95;;;6.90;99.90;;;;;;2055128;28;20035;-71
2021/05/29 03:26:03;;;;;;;13.77;11.52;;;6.90;99.90;;;;;;2064432;28;20030;-71
2021/05/29 03:27:04;;;;;;;15.73;12.52;;;6.90;99.90;;;;;;2064252;28;20048;-71
2021/05/29 03:28:05;;;;;;;13.52;11.00;;;7.00;99.90;;;;;;2064134;28;20446;-71
2021/05/29 03:29:06;;;;;;;14.88;11.75;;;7.00;99.90;;;;;;2064219;28;20069;-71
2021/05/29 03:30:10;;;;;;;13.93;12.13;;;7.00;99.90;;;;;;2064241;28;20085;-71
2021/05/29 03:31:11;;;;;;;14.10;11.77;;;7.00;99.90;;;;;;2064423;28;20034;-71
2021/05/29 03:32:12;;;;;;;13.88;11.95;;;7.00;99.90;;;;;;2064330;28;20030;-71
2021/05/29 03:33:13;;;;;;;13.50;11.55;;;7.10;99.90;;;;;;2055669;28;20137;-71
2021/05/29 03:34:14;;;;;;;14.20;12.13;;;7.10;99.90;;;;;;2055064;28;20045;-71
2021/05/29 03:35:14;;;;;;;14.65;12.32;;;7.10;99.90;;;;;;2055447;28;20023;-71
2021/05/29 03:36:15;;;;;;;14.27;12.13;;;7.20;99.90;;;;;;2060864;28;20023;-71
2021/05/29 03:37:16;;;;;;;14.90;11.93;;;7.20;99.90;;;;;;2063901;28;20549;-71
2021/05/29 03:38:18;;;;;;;14.68;12.20;;;7.20;99.90;;;;;;2064280;28;20098;-71
2021/05/29 03:39:19;;;;;;;13.25;11.25;;;7.20;99.90;;;;;;2064144;28;20051;-71
2021/05/29 03:40:20;;;;;;;12.75;11.30;;;7.30;99.90;;;;;;2064091;28;20401;-71
2021/05/29 03:41:22;;;;;;;13.43;11.40;;;7.30;99.90;;;;;;2064102;28;20070;-71
2021/05/29 03:42:23;;;;;;;13.55;11.68;;;7.30;99.90;;;;;;2064125;28;20429;-71
2021/05/29 03:43:23;;;;;;;14.00;11.40;;;7.30;99.90;;;;;;2055440;28;20035;-70
2021/05/29 03:44:24;;;;;;;14.13;11.80;;;7.30;99.90;;;;;;2054673;28;20066;-70
2021/05/29 03:45:25;;;;;;;12.38;10.93;;;7.40;99.90;;;;;;2064155;28;20034;-71
2021/05/29 03:46:25;;;;;;;12.57;11.07;;;7.40;99.90;;;;;;2064481;28;20030;-70
2021/05/29 03:47:26;;;;;;;12.45;10.70;;;7.40;99.90;;;;;;2064378;28;20530;-70
2021/05/29 03:48:27;;;;;;;11.35;10.15;;;7.50;99.90;;;;;;2047640;29;20023;-70
2021/05/29 03:49:27;;;;;;;10.80;9.70;;;7.50;99.90;;;;;;2047540;29;20027;-70
2021/05/29 03:50:28;;;;;;;12.70;10.60;;;7.50;99.90;;;;;;2064235;28;20042;-73
2021/05/29 03:51:28;;;;;;;11.77;10.48;;;7.60;99.90;;;;;;2064378;28;20073;-71
2021/05/29 03:52:29;;;;;;;12.70;10.73;;;7.60;99.90;;;;;;2064044;28;20034;-70
2021/05/29 03:53:30;;;;;;;11.50;10.20;;;7.60;99.90;;;;;;2056056;28;20027;-71
2021/05/29 03:54:30;;;;;;;13.27;10.85;;;7.70;99.90;;;;;;2055512;28;20039;-72
2021/05/29 03:55:33;;;;;;;11.18;9.98;;;7.70;99.90;;;;;;2065443;28;20042;-71
2021/05/29 03:56:33;;;;;;;12.93;10.65;;;7.80;99.90;;;;;;2056345;28;20046;-71
2021/05/29 03:57:34;;;;;;;12.50;10.40;;;7.80;99.90;;;;;;2049393;28;20028;-71
2021/05/29 03:58:34;;;;;;;11.13;9.95;;;7.90;99.90;;;;;;2056673;28;20110;-73
2021/05/29 03:59:35;;;;;;;11.85;10.07;;;7.90;99.90;;;;;;2064920;28;20034;-71
2021/05/29 04:00:36;;;;;;;10.90;9.80;;;7.90;99.90;;;;;;2056246;28;20023;-70
2021/05/29 04:01:38;;;;;;;11.70;10.05;;;8.00;99.90;;;;;;2055548;28;20703;-71
2021/05/29 04:02:39;;;;;;;11.75;10.40;;;8.00;99.90;;;;;;2064375;28;20023;-70
2021/05/29 04:03:40;;;;;;;14.18;10.88;;;8.10;99.90;;;;;;2064660;28;20484;-71
2021/05/29 04:04:40;;;;;;;11.48;10.27;;;8.10;99.90;;;;;;2060737;28;20019;-71
2021/05/29 04:05:41;;;;;;;11.57;10.27;;;8.10;99.90;;;;;;2063925;28;20417;-70
2021/05/29 04:06:42;;;;;;;11.82;10.55;;;8.10;99.90;;;;;;2063855;28;20034;-72
2021/05/29 04:07:42;;;;;;;11.77;10.45;;;8.20;99.90;;;;;;2064034;28;20120;-71
2021/05/29 04:08:43;;;;;;;11.05;9.85;;;8.30;99.90;;;;;;2063987;28;20031;-71
2021/05/29 04:09:43;;;;;;;10.77;9.45;;;8.30;99.90;;;;;;2064169;28;20030;-72
2021/05/29 04:10:44;;;;;;;11.30;10.02;;;8.30;99.90;;;;;;2064490;28;20486;-71
2021/05/29 04:11:45;;;;;;;10.85;9.52;;;8.40;99.90;;;;;;2065532;28;20031;-71
2021/05/29 04:12:46;;;;;;;10.20;9.07;;;8.40;99.90;;;;;;2065710;28;20056;-71
2021/05/29 04:13:47;;;;;;;10.80;9.70;;;8.50;99.90;;;;;;2056938;28;20031;-71
2021/05/29 04:14:49;;;;;;;10.60;9.48;;;8.50;99.90;;;;;;2056107;28;20534;-72
2021/05/29 04:15:49;;;;;;;11.23;9.95;;;8.50;99.90;;;;;;2064813;28;20027;-72
2021/05/29 04:16:50;;;;;;;10.20;9.10;;;8.60;99.90;;;;;;2065165;28;20389;-71
2021/05/29 04:17:51;;;;;;;9.93;8.93;;;8.70;99.90;;;;;;2056703;28;20058;-72
2021/05/29 04:18:52;;;;;;;10.77;9.63;;;8.70;99.90;;;;;;2056713;28;20474;-71
2021/05/29 04:19:53;;;;;;;10.50;9.43;;;8.80;99.90;;;;;;2065381;28;20053;-71
2021/05/29 04:20:53;;;;;;;10.77;9.60;;;8.80;99.90;;;;;;2065333;28;20054;-71
2021/05/29 04:21:54;;;;;;;11.50;10.25;;;8.80;99.90;;;;;;2065301;28;20040;-71
2021/05/29 04:22:55;;;;;;;11.70;10.50;;;8.90;99.90;;;;;;2065367;28;20540;-70
2021/05/29 04:23:56;;;;;;;10.73;9.63;;;8.90;99.90;;;;;;2065233;28;20061;-71
2021/05/29 04:24:56;;;;;;;11.60;10.40;;;8.90;99.90;;;;;;2064413;28;20389;-71
2021/05/29 04:25:57;;;;;;;11.38;10.18;;;8.90;99.90;;;;;;2056470;28;20042;-71
2021/05/29 04:26:58;;;;;;;11.60;10.18;;;9.00;99.80;;;;;;2056900;28;20142;-71
2021/05/29 04:27:59;;;;;;;10.35;9.35;;;9.00;99.70;;;;;;2064638;28;20429;-70
2021/05/29 04:28:59;;;;;;;11.68;9.98;;;9.10;99.80;;;;;;2064729;28;20034;-70
2021/05/29 04:30:00;;;;;;;11.43;9.93;;;9.10;99.80;;;;;;2065344;28;20086;-69
2021/05/29 04:31:02;;;;;;;10.60;9.45;;;9.20;99.70;;;;;;2065198;28;20030;-70
2021/05/29 04:32:04;;;;;;;10.88;9.57;;;9.20;99.60;;;;;;2065238;28;20030;-70
2021/05/29 04:33:04;;;;;;;11.10;9.90;;;9.30;99.50;;;;;;2065263;28;20799;-70
2021/05/29 04:34:05;;;;;;;10.48;9.38;;;9.30;99.40;;;;;;2064537;28;20030;-71
2021/05/29 04:35:07;;;;;;;11.60;10.18;;;9.40;99.60;;;;;;2062088;28;20018;-70
2021/05/29 04:36:08;;;;;;;15.00;12.20;;;9.40;99.20;;;;;;2065050;28;20093;-70
2021/05/29 04:37:10;;;;;;;12.73;11.43;;;9.40;98.70;;;;;;2065015;28;20027;-71
2021/05/29 04:38:10;;;;;;;12.30;10.90;;;9.40;98.90;;;;;;2056684;28;20031;-69
2021/05/29 04:39:11;;;;;;;13.63;11.75;;;9.40;98.90;;;;;;2056688;28;20469;-71
2021/05/29 04:40:12;;;;;;;15.45;11.82;;;9.50;98.80;;;;;;2065273;28;20563;-71
2021/05/29 04:41:13;;;;;;;13.50;11.50;;;9.50;98.70;;;;;;2065356;28;20437;-71
2021/05/29 04:42:14;;;;;;;13.13;11.55;;;9.50;98.70;;;;;;2065259;28;20053;-71
2021/05/29 04:43:15;;;;;;;12.80;11.07;;;9.60;98.80;;;;;;2056691;28;20038;-71
2021/05/29 04:44:16;;;;;;;14.05;11.55;;;9.60;98.60;;;;;;2055910;28;20117;-70
2021/05/29 04:45:17;;;;;;;12.57;10.93;;;9.70;98.60;;;;;;2065292;28;20030;-70
2021/05/29 04:46:19;;;;;;;16.65;12.85;;;9.70;98.60;;;;;;2065142;28;20026;-69
2021/05/29 04:47:19;;;;;;;14.52;12.30;;;9.80;98.40;;;;;;2064973;28;20026;-71
2021/05/29 04:48:20;;;;;;;14.73;11.73;;;9.80;98.30;;;;;;2065073;28;20041;-70
2021/05/29 04:49:22;;;;;;;12.70;11.25;;;9.80;98.10;;;;;;2064542;28;20057;-71
2021/05/29 04:50:23;;;;;;;12.38;11.02;;;9.80;98.10;;;;;;2056617;28;20713;-71
2021/05/29 04:51:24;;;;;;;14.20;10.90;;;9.90;98.00;;;;;;2056442;28;20034;-71
2021/05/29 04:52:24;;;;;;;13.38;11.15;;;9.90;98.00;;;;;;2056542;28;20478;-70
2021/05/29 04:53:25;;;;;;;12.73;10.88;;;9.90;97.90;;;;;;2056679;28;20053;-70
2021/05/29 04:54:27;;;;;;;13.10;11.10;;;9.90;97.80;;;;;;2055575;28;20034;-72
2021/05/29 04:55:27;;;;;;;13.35;10.82;;;10.00;97.60;;;;;;2056606;28;20081;-71
2021/05/29 04:56:31;;;;;;;13.43;11.38;;;10.00;97.60;;;;;;2056447;28;20023;-70
2021/05/29 04:57:31;;;;;;;13.25;11.30;;;10.00;97.50;;;;;;2056895;28;20018;-71
2021/05/29 04:58:32;;;;;;;14.05;11.80;;;10.00;97.40;;;;;;2065192;28;20501;-72
2021/05/29 04:59:33;;;;;;;14.27;11.20;;;10.00;97.30;;;;;;2065335;28;20073;-70
2021/05/29 05:00:33;;;;;;;12.18;10.70;;;10.10;97.30;;;;;;2056736;28;20030;-70
2021/05/29 05:01:34;;;;;;;14.07;11.32;;;10.10;97.50;;;;;;2056733;28;20062;-70
2021/05/29 05:02:35;;;;;;;12.77;10.63;;;10.10;97.20;;;;;;2065207;28;20030;-70
2021/05/29 05:03:37;;;;;;;13.07;11.20;;;10.20;97.20;;;;;;2056850;28;20027;-70
2021/05/29 05:04:37;;;;;;;13.75;11.10;;;10.20;97.20;;;;;;2053195;28;20696;-71
2021/05/29 05:05:38;;;;;;;13.93;11.85;;;10.20;97.10;;;;;;2065208;28;20053;-70
2021/05/29 05:06:39;;;;;;;12.93;11.15;;;10.20;96.90;;;;;;2055877;28;20026;-70
2021/05/29 05:07:39;;;;;;;15.02;11.85;;;10.20;96.80;;;;;;2048738;29;20034;-70
2021/05/29 05:08:40;;;;;;;12.65;11.18;;;10.30;96.70;;;;;;2064624;28;20061;-71
2021/05/29 05:09:41;;;;;;;13.38;11.20;;;10.30;96.70;;;;;;2064357;28;20054;-70
2021/05/29 05:10:41;;;;;;;12.35;10.32;;;10.30;96.60;;;;;;2065057;28;20709;-71
2021/05/29 05:11:42;;;;;;;14.18;11.70;;;10.30;96.60;;;;;;2065120;28;20022;-71
2021/05/29 05:12:43;;;;;;;15.45;11.73;;;10.30;96.50;;;;;;2056407;28;20097;-71
2021/05/29 05:13:44;;;;;;;15.25;11.30;;;10.40;96.50;;;;;;2056542;28;20085;-70
2021/05/29 05:14:45;;;;;;;15.98;13.52;;;10.30;96.40;;;;;;2064078;28;20026;-70
2021/05/29 05:15:45;;;;;;;16.48;13.02;;;10.30;96.30;;;;;;2065109;28;20448;-71